Time;durP1;ratioP1;P1;durP2;ratioP2;P2;SDS_P1;SDS_P2;PMS_P1;PMS_P2;Temp;Humidity;BMP_temperature;BMP_pressure;BME280_temperature;BME280_humidity;BME280_pressure;Samples;Min_cycle;Max_cycle;Signal;HPM_P1;HPM_P2
2021/06/28 00:00:36;;;;;;;10.32;8.25;;;;;;;;;;5005737;28;20214;-67
2021/06/28 00:03:02;;;;;;;10.35;9.15;;;;;;;;;;4998923;28;20630;-67
2021/06/28 00:05:27;;;;;;;10.82;9.10;;;;;;;;;;5003758;28;20710;-67
2021/06/28 00:07:53;;;;;;;9.30;8.40;;;;;;;;;;4996006;28;20179;-68
2021/06/28 00:10:24;;;;;;;11.68;9.10;;;;;;;;;;5003668;28;20187;-67
2021/06/28 00:12:52;;;;;;;11.52;8.77;;;;;;;;;;5007739;28;20202;-67
2021/06/28 00:15:20;;;;;;;10.35;9.27;;;;;;;;;;4994098;28;20194;-68
2021/06/28 00:17:47;;;;;;;11.75;9.52;;;;;;;;;;5006170;28;20187;-66
2021/06/28 00:20:14;;;;;;;11.52;8.50;;;;;;;;;;4996149;28;20205;-67
2021/06/28 00:22:39;;;;;;;9.65;8.65;;;;;;;;;;5019816;28;20178;-67
2021/06/28 00:25:09;;;;;;;10.00;9.02;;;;;;;;;;4997370;28;20241;-67
2021/06/28 00:27:36;;;;;;;9.88;8.88;;;;;;;;;;5005746;28;20236;-67
2021/06/28 00:30:10;;;;;;;10.20;9.25;;;;;;;;;;4995134;28;20210;-67
2021/06/28 00:32:35;;;;;;;10.38;9.40;;;;;;;;;;5007484;28;20209;-66
2021/06/28 00:35:01;;;;;;;11.68;10.32;;;;;;;;;;4996100;28;20673;-67
2021/06/28 00:37:27;;;;;;;11.07;9.88;;;;;;;;;;5006670;28;20187;-67
2021/06/28 00:39:52;;;;;;;11.25;10.15;;;;;;;;;;4995241;28;20578;-67
2021/06/28 00:42:17;;;;;;;12.73;11.40;;;;;;;;;;5001797;28;20183;-67
2021/06/28 00:44:43;;;;;;;12.57;11.27;;;;;;;;;;5003683;28;20266;-67
2021/06/28 00:47:08;;;;;;;13.25;11.07;;;;;;;;;;4990499;28;20191;-67
2021/06/28 00:49:34;;;;;;;12.93;11.15;;;;;;;;;;5016619;28;20285;-67
2021/06/28 00:51:59;;;;;;;13.07;11.23;;;;;;;;;;4996981;28;20248;-67
2021/06/28 00:54:25;;;;;;;12.23;10.43;;;;;;;;;;5004815;28;20663;-67
2021/06/28 00:56:52;;;;;;;11.75;10.10;;;;;;;;;;4993300;28;20198;-67
2021/06/28 00:59:18;;;;;;;13.32;11.20;;;;;;;;;;5003226;28;20194;-67
2021/06/28 01:01:43;;;;;;;12.82;11.43;;;;;;;;;;4999838;28;20360;-67
2021/06/28 01:04:08;;;;;;;13.40;10.88;;;;;;;;;;5006440;28;20342;-67
2021/06/28 01:06:34;;;;;;;14.07;11.27;;;;;;;;;;4996453;28;20331;-68
2021/06/28 01:08:59;;;;;;;13.65;11.02;;;;;;;;;;5000543;28;20284;-67
2021/06/28 01:11:25;;;;;;;12.95;11.48;;;;;;;;;;4995536;28;20631;-67
2021/06/28 01:13:51;;;;;;;14.30;11.05;;;;;;;;;;5005760;28;20190;-67
2021/06/28 01:16:17;;;;;;;14.05;11.68;;;;;;;;;;5002661;28;20702;-67
2021/06/28 01:18:42;;;;;;;12.68;10.77;;;;;;;;;;4996712;28;20183;-67
2021/06/28 01:21:10;;;;;;;12.43;11.13;;;;;;;;;;5001584;28;20174;-67
2021/06/28 01:23:35;;;;;;;12.30;11.10;;;;;;;;;;4998375;28;20290;-67
2021/06/28 01:26:05;;;;;;;13.75;12.35;;;;;;;;;;5001704;28;20270;-67
2021/06/28 01:28:30;;;;;;;11.70;10.50;;;;;;;;;;4997514;28;20210;-67
2021/06/28 01:30:59;;;;;;;12.98;11.68;;;;;;;;;;5004891;28;20185;-67
2021/06/28 01:33:25;;;;;;;14.15;12.73;;;;;;;;;;4995854;28;20205;-67
2021/06/28 01:35:51;;;;;;;12.85;11.55;;;;;;;;;;5002715;28;20189;-68
2021/06/28 01:38:17;;;;;;;12.77;11.45;;;;;;;;;;4997309;28;20233;-67
2021/06/28 01:40:43;;;;;;;13.55;12.25;;;;;;;;;;5002777;28;20186;-67
2021/06/28 01:43:08;;;;;;;13.82;12.32;;;;;;;;;;4994943;28;20487;-67
2021/06/28 01:45:35;;;;;;;15.80;12.90;;;;;;;;;;5002291;28;20188;-67
2021/06/28 01:48:00;;;;;;;14.13;12.55;;;;;;;;;;5005976;28;20201;-67
2021/06/28 01:50:28;;;;;;;15.40;12.88;;;;;;;;;;5009651;28;20227;-67
2021/06/28 01:52:54;;;;;;;15.38;13.38;;;;;;;;;;4998795;28;20700;-67
2021/06/28 01:55:21;;;;;;;14.25;12.50;;;;;;;;;;4997106;28;20191;-67
2021/06/28 01:57:52;;;;;;;15.85;12.18;;;;;;;;;;5003966;28;20179;-67
2021/06/28 02:00:23;;;;;;;14.27;11.85;;;;;;;;;;4996599;28;20202;-67
2021/06/28 02:03:03;;;;;;;15.90;12.50;;;;;;;;;;4998975;28;20183;-67
2021/06/28 02:05:32;;;;;;;17.25;12.27;;;;;;;;;;4994281;28;20194;-67
2021/06/28 02:07:58;;;;;;;15.93;12.25;;;;;;;;;;5005480;28;20344;-67
2021/06/28 02:10:23;;;;;;;14.55;13.00;;;;;;;;;;4992554;28;20656;-67
2021/06/28 02:12:49;;;;;;;14.60;12.93;;;;;;;;;;5007596;28;20265;-67
2021/06/28 02:15:27;;;;;;;16.08;13.55;;;;;;;;;;4993444;28;20202;-67
2021/06/28 02:17:52;;;;;;;14.88;12.93;;;;;;;;;;4998120;28;20612;-67
2021/06/28 02:20:19;;;;;;;14.88;13.27;;;;;;;;;;4994344;28;20183;-67
2021/06/28 02:22:46;;;;;;;15.23;13.13;;;;;;;;;;5003567;28;20280;-67
2021/06/28 02:25:12;;;;;;;16.25;14.00;;;;;;;;;;4993351;28;20198;-67
2021/06/28 02:27:38;;;;;;;16.30;13.73;;;;;;;;;;5006168;28;20249;-67
2021/06/28 02:30:06;;;;;;;16.33;14.20;;;;;;;;;;5000928;28;20297;-67
2021/06/28 02:32:32;;;;;;;16.70;14.10;;;;;;;;;;4998848;28;20191;-67
2021/06/28 02:34:57;;;;;;;17.00;14.15;;;;;;;;;;5003964;28;20245;-67
2021/06/28 02:37:23;;;;;;;17.88;15.43;;;;;;;;;;4996230;28;20202;-67
2021/06/28 02:39:48;;;;;;;16.67;14.95;;;;;;;;;;5006351;28;20566;-67
2021/06/28 02:42:14;;;;;;;16.63;14.82;;;;;;;;;;5015693;28;20182;-67
2021/06/28 02:44:39;;;;;;;20.35;14.77;;;;;;;;;;5005634;28;20222;-67
2021/06/28 02:47:05;;;;;;;15.98;13.50;;;;;;;;;;4994117;28;20285;-67
2021/06/28 02:49:30;;;;;;;16.23;14.50;;;;;;;;;;5005101;28;20772;-67
2021/06/28 02:51:55;;;;;;;21.48;15.45;;;;;;;;;;5001130;28;20195;-67
2021/06/28 02:54:21;;;;;;;19.30;14.27;;;;;;;;;;5005072;28;20191;-67
2021/06/28 02:56:46;;;;;;;17.02;14.95;;;;;;;;;;4999034;28;20218;-67
2021/06/28 02:59:12;;;;;;;17.60;14.65;;;;;;;;;;5019956;28;20243;-67
2021/06/28 03:01:38;;;;;;;15.93;14.15;;;;;;;;;;5006213;28;20207;-67
2021/06/28 03:04:04;;;;;;;16.77;14.95;;;;;;;;;;4997950;28;20197;-67
2021/06/28 03:06:29;;;;;;;16.13;14.45;;;;;;;;;;5007682;28;20526;-67
2021/06/28 03:08:55;;;;;;;16.85;14.45;;;;;;;;;;4999036;28;20241;-67
2021/06/28 03:11:21;;;;;;;19.58;14.68;;;;;;;;;;5006528;28;20179;-67
2021/06/28 03:13:49;;;;;;;16.90;14.00;;;;;;;;;;4993540;28;20192;-67
2021/06/28 03:16:14;;;;;;;17.75;14.60;;;;;;;;;;5009967;28;20495;-67
2021/06/28 03:18:40;;;;;;;18.35;14.73;;;;;;;;;;4995792;28;20197;-67
2021/06/28 03:21:11;;;;;;;16.88;13.82;;;;;;;;;;5008925;28;20253;-67
2021/06/28 03:23:36;;;;;;;20.42;14.82;;;;;;;;;;5000458;28;20541;-67
2021/06/28 03:26:02;;;;;;;16.65;13.60;;;;;;;;;;5003623;28;20252;-67
2021/06/28 03:28:28;;;;;;;16.17;13.60;;;;;;;;;;4999233;28;20218;-67
2021/06/28 03:30:53;;;;;;;15.07;13.35;;;;;;;;;;5006533;28;20175;-67
2021/06/28 03:33:19;;;;;;;17.08;14.43;;;;;;;;;;5000319;28;20279;-67
2021/06/28 03:35:44;;;;;;;16.15;13.13;;;;;;;;;;5001679;28;20183;-67
2021/06/28 03:38:10;;;;;;;17.83;13.27;;;;;;;;;;5002976;28;20221;-67
2021/06/28 03:40:35;;;;;;;15.32;12.88;;;;;;;;;;4995592;28;20202;-67
2021/06/28 03:43:08;;;;;;;14.35;11.88;;;;;;;;;;5005402;28;20285;-67
2021/06/28 03:45:34;;;;;;;14.93;12.60;;;;;;;;;;4995697;28;20206;-67
2021/06/28 03:48:00;;;;;;;14.48;12.85;;;;;;;;;;5008358;28;20210;-67
2021/06/28 03:50:25;;;;;;;14.60;12.88;;;;;;;;;;4994433;28;20230;-67
2021/06/28 03:52:51;;;;;;;16.63;12.20;;;;;;;;;;5005490;28;20195;-67
2021/06/28 03:55:17;;;;;;;15.18;12.55;;;;;;;;;;4999891;28;20186;-67
2021/06/28 03:57:42;;;;;;;15.88;12.02;;;;;;;;;;5000391;28;20202;-67
2021/06/28 04:00:12;;;;;;;14.30;12.88;;;;;;;;;;4989946;28;20233;-67
2021/06/28 04:02:40;;;;;;;15.20;12.68;;;;;;;;;;4997179;28;20659;-67
2021/06/28 04:05:07;;;;;;;13.82;12.18;;;;;;;;;;4992593;28;20258;-67
2021/06/28 04:07:33;;;;;;;14.20;12.35;;;;;;;;;;4995180;28;20237;-67
2021/06/28 04:10:03;;;;;;;14.15;11.82;;;;;;;;;;5001340;28;20229;-67
2021/06/28 04:12:28;;;;;;;13.48;11.48;;;;;;;;;;4989461;28;20194;-67
2021/06/28 04:14:54;;;;;;;16.63;11.38;;;;;;;;;;5003374;28;20506;-67
2021/06/28 04:17:19;;;;;;;15.60;12.18;;;;;;;;;;4994673;28;20496;-67
2021/06/28 04:19:44;;;;;;;13.48;12.05;;;;;;;;;;5004724;28;20690;-67
2021/06/28 04:22:10;;;;;;;13.77;12.20;;;;;;;;;;4997822;28;20191;-67
2021/06/28 04:24:35;;;;;;;13.55;12.15;;;;;;;;;;5005845;28;20618;-67
2021/06/28 04:27:00;;;;;;;13.52;12.15;;;;;;;;;;5001128;28;20657;-67
2021/06/28 04:29:26;;;;;;;14.40;12.57;;;;;;;;;;5004736;28;20713;-67
2021/06/28 04:31:52;;;;;;;15.32;11.80;;;;;;;;;;4996515;28;20209;-67
2021/06/28 04:34:17;;;;;;;14.40;12.07;;;;;;;;;;5002759;28;20190;-67
2021/06/28 04:36:43;;;;;;;13.48;11.32;;;;;;;;;;4990500;28;20520;-67
2021/06/28 04:39:08;;;;;;;13.73;12.15;;;;;;;;;;4996318;28;20639;-67
2021/06/28 04:41:34;;;;;;;14.27;11.82;;;;;;;;;;4997673;28;20200;-67
2021/06/28 04:44:00;;;;;;;13.05;11.55;;;;;;;;;;4990828;28;20187;-67
2021/06/28 04:46:25;;;;;;;14.85;12.85;;;;;;;;;;4999470;28;20184;-67
2021/06/28 04:48:50;;;;;;;15.10;11.77;;;;;;;;;;4988670;28;20213;-67
2021/06/28 04:51:16;;;;;;;14.55;12.70;;;;;;;;;;4994215;28;20235;-67
2021/06/28 04:53:41;;;;;;;15.77;12.43;;;;;;;;;;4992992;28;20237;-67
2021/06/28 04:56:06;;;;;;;14.85;12.40;;;;;;;;;;5011176;28;20191;-67
2021/06/28 04:58:32;;;;;;;14.77;12.20;;;;;;;;;;4989779;28;20194;-67
2021/06/28 05:00:58;;;;;;;15.43;12.50;;;;;;;;;;4994397;28;20221;-67
2021/06/28 05:03:23;;;;;;;13.02;11.73;;;;;;;;;;4984153;28;20187;-67
2021/06/28 05:05:49;;;;;;;15.65;12.07;;;;;;;;;;4996763;28;20273;-67
2021/06/28 05:08:14;;;;;;;14.50;12.95;;;;;;;;;;5000785;28;20191;-67
2021/06/28 05:10:39;;;;;;;15.05;12.38;;;;;;;;;;4990956;28;20250;-67
2021/06/28 05:13:05;;;;;;;13.65;12.23;;;;;;;;;;4998323;28;20214;-67
2021/06/28 05:15:31;;;;;;;13.43;11.77;;;;;;;;;;4990975;28;20203;-67
2021/06/28 05:17:56;;;;;;;13.77;12.15;;;;;;;;;;4994431;28;20187;-67
2021/06/28 05:20:22;;;;;;;13.82;12.23;;;;;;;;;;4989234;28;20191;-67
2021/06/28 05:22:47;;;;;;;14.10;12.63;;;;;;;;;;5001663;28;20241;-66
2021/06/28 05:25:13;;;;;;;13.75;12.35;;;;;;;;;;4985624;28;20643;-65
2021/06/28 05:27:39;;;;;;;17.50;12.70;;;;;;;;;;4999128;28;20184;-67
2021/06/28 05:30:07;;;;;;;15.88;12.70;;;;;;;;;;4986895;28;20208;-67
2021/06/28 05:32:34;;;;;;;16.08;12.77;;;;;;;;;;4997350;28;20612;-67
2021/06/28 05:34:59;;;;;;;16.48;12.88;;;;;;;;;;4990143;28;20730;-67
2021/06/28 05:37:25;;;;;;;15.88;12.88;;;;;;;;;;5004548;28;20191;-67
2021/06/28 05:39:50;;;;;;;15.98;13.57;;;;;;;;;;5005649;28;20617;-67
2021/06/28 05:42:15;;;;;;;14.02;12.18;;;;;;;;;;4993501;28;20197;-67
2021/06/28 05:44:41;;;;;;;14.65;12.85;;;;;;;;;;5008726;28;20248;-68
2021/06/28 05:47:07;;;;;;;16.13;13.35;;;;;;;;;;4993051;28;20320;-68
2021/06/28 05:49:36;;;;;;;16.08;13.30;;;;;;;;;;5004082;28;20238;-68
2021/06/28 05:52:02;;;;;;;14.55;12.52;;;;;;;;;;4990969;28;20186;-67
2021/06/28 05:54:27;;;;;;;14.65;13.13;;;;;;;;;;5005610;28;20182;-67
2021/06/28 05:56:53;;;;;;;15.05;12.52;;;;;;;;;;4994672;28;20186;-67
2021/06/28 05:59:18;;;;;;;14.60;12.65;;;;;;;;;;4997771;28;20456;-66
2021/06/28 06:01:44;;;;;;;14.25;12.60;;;;;;;;;;4988922;28;20214;-67
2021/06/28 06:04:14;;;;;;;14.20;12.73;;;;;;;;;;4995179;28;20186;-67
2021/06/28 06:06:41;;;;;;;15.68;12.98;;;;;;;;;;4993219;28;20306;-67
2021/06/28 06:09:07;;;;;;;15.48;12.32;;;;;;;;;;4996916;28;20651;-68
2021/06/28 06:11:32;;;;;;;14.52;12.77;;;;;;;;;;5021752;28;20237;-66
2021/06/28 06:13:58;;;;;;;14.70;12.55;;;;;;;;;;4995499;28;20214;-67
2021/06/28 06:16:24;;;;;;;14.93;13.30;;;;;;;;;;5001733;28;20875;-67
2021/06/28 06:18:50;;;;;;;14.82;13.32;;;;;;;;;;4995994;28;20186;-67
2021/06/28 06:21:16;;;;;;;15.15;13.00;;;;;;;;;;5000912;28;20258;-68
2021/06/28 06:23:41;;;;;;;14.63;13.05;;;;;;;;;;4994042;28;20543;-67
2021/06/28 06:26:06;;;;;;;14.77;13.15;;;;;;;;;;5008773;28;20190;-68
2021/06/28 06:28:32;;;;;;;14.07;11.98;;;;;;;;;;4989391;28;20813;-67
2021/06/28 06:30:57;;;;;;;14.77;12.85;;;;;;;;;;5005902;28;20541;-67
2021/06/28 06:33:22;;;;;;;14.48;12.68;;;;;;;;;;4995772;28;20435;-67
2021/06/28 06:35:48;;;;;;;14.90;12.82;;;;;;;;;;5002545;28;20210;-68
2021/06/28 06:38:14;;;;;;;14.40;12.95;;;;;;;;;;4994616;28;20193;-68
2021/06/28 06:40:40;;;;;;;14.77;13.18;;;;;;;;;;4999197;28;20187;-67
2021/06/28 06:43:05;;;;;;;15.15;13.10;;;;;;;;;;5000537;28;20574;-67
2021/06/28 06:45:31;;;;;;;14.90;13.15;;;;;;;;;;4996319;28;20195;-68
2021/06/28 06:47:57;;;;;;;16.38;14.05;;;;;;;;;;5004112;28;20730;-67
2021/06/28 06:50:22;;;;;;;16.50;13.02;;;;;;;;;;4994827;28;20253;-67
2021/06/28 06:52:49;;;;;;;14.88;13.32;;;;;;;;;;5005978;28;20191;-68
2021/06/28 06:55:15;;;;;;;15.85;12.98;;;;;;;;;;4993444;28;20233;-67
2021/06/28 06:57:41;;;;;;;15.43;13.38;;;;;;;;;;5000230;28;20264;-67
2021/06/28 07:00:11;;;;;;;16.67;14.65;;;;;;;;;;4996870;28;20233;-67
2021/06/28 07:02:36;;;;;;;14.02;12.63;;;;;;;;;;5008274;28;20194;-66
2021/06/28 07:05:04;;;;;;;15.88;13.38;;;;;;;;;;5001073;28;20194;-68
2021/06/28 07:07:29;;;;;;;14.73;12.27;;;;;;;;;;5008975;28;20194;-67
2021/06/28 07:09:54;;;;;;;16.73;13.45;;;;;;;;;;5000575;28;20211;-66
2021/06/28 07:12:20;;;;;;;15.15;12.57;;;;;;;;;;5017466;28;20194;-67
2021/06/28 07:14:45;;;;;;;14.38;12.85;;;;;;;;;;5003062;28;20196;-67
2021/06/28 07:17:10;;;;;;;14.52;12.88;;;;;;;;;;4994308;28;20327;-67
2021/06/28 07:19:36;;;;;;;13.70;12.32;;;;;;;;;;5003755;28;20242;-67
2021/06/28 07:22:01;;;;;;;14.75;13.25;;;;;;;;;;4996086;28;20697;-66
2021/06/28 07:24:27;;;;;;;16.63;12.95;;;;;;;;;;5004368;28;20639;-67
2021/06/28 07:26:53;;;;;;;16.13;12.73;;;;;;;;;;4994759;28;20681;-66
2021/06/28 07:29:18;;;;;;;15.10;13.52;;;;;;;;;;5003944;28;20627;-67
2021/06/28 07:31:44;;;;;;;14.30;12.82;;;;;;;;;;4994236;28;20277;-68
2021/06/28 07:34:09;;;;;;;13.15;11.68;;;;;;;;;;4994421;28;20504;-68
2021/06/28 07:36:35;;;;;;;13.60;12.18;;;;;;;;;;4990670;28;20640;-67
2021/06/28 07:39:02;;;;;;;16.33;13.07;;;;;;;;;;5000552;28;20512;-67
2021/06/28 07:41:30;;;;;;;13.68;12.35;;;;;;;;;;4994401;28;20191;-67
2021/06/28 07:43:57;;;;;;;13.27;11.88;;;;;;;;;;4999951;28;20210;-68
2021/06/28 07:46:23;;;;;;;13.02;11.73;;;;;;;;;;4999006;28;20206;-67
2021/06/28 07:48:48;;;;;;;15.50;13.10;;;;;;;;;;4991862;28;20678;-66
2021/06/28 07:51:13;;;;;;;14.20;12.70;;;;;;;;;;5002659;28;20321;-67
2021/06/28 07:53:39;;;;;;;13.15;11.82;;;;;;;;;;4987043;28;20194;-67
2021/06/28 07:56:19;;;;;;;12.93;11.48;;;;;;;;;;4995465;28;20628;-68
2021/06/28 07:58:46;;;;;;;14.43;12.95;;;;;;;;;;4994931;28;20229;-68
2021/06/28 08:01:12;;;;;;;14.10;12.70;;;;;;;;;;5002330;28;20210;-67
2021/06/28 08:03:47;;;;;;;17.25;14.02;;;;;;;;;;4993798;28;20194;-67
2021/06/28 08:06:20;;;;;;;17.02;15.23;;;;;;;;;;5000240;28;20638;-68
2021/06/28 08:08:48;;;;;;;16.27;14.13;;;;;;;;;;5000686;28;20243;-68
2021/06/28 08:11:14;;;;;;;16.00;13.85;;;;;;;;;;5003735;28;20249;-67
2021/06/28 08:13:42;;;;;;;14.50;12.43;;;;;;;;;;4997659;28;20214;-67
2021/06/28 08:16:08;;;;;;;12.88;11.55;;;;;;;;;;5001772;28;20204;-68
2021/06/28 08:18:34;;;;;;;15.95;13.65;;;;;;;;;;5000510;28;20255;-66
2021/06/28 08:21:00;;;;;;;16.33;13.07;;;;;;;;;;5004765;28;20183;-68
2021/06/28 08:23:26;;;;;;;13.18;11.80;;;;;;;;;;5006572;28;20277;-68
2021/06/28 08:25:51;;;;;;;13.48;11.10;;;;;;;;;;5007293;28;20282;-68
2021/06/28 08:28:16;;;;;;;15.95;11.93;;;;;;;;;;5002749;28;20178;-68
2021/06/28 08:30:42;;;;;;;14.18;12.68;;;;;;;;;;4997298;28;20289;-67
2021/06/28 08:33:07;;;;;;;14.35;12.20;;;;;;;;;;5004981;28;20178;-68
2021/06/28 08:35:33;;;;;;;12.00;10.77;;;;;;;;;;4987890;28;20643;-68
2021/06/28 08:37:58;;;;;;;13.85;12.02;;;;;;;;;;5000912;28;20245;-68
2021/06/28 08:40:24;;;;;;;12.20;11.00;;;;;;;;;;4992984;28;20817;-67
2021/06/28 08:42:49;;;;;;;12.13;10.98;;;;;;;;;;5003471;28;20517;-68
2021/06/28 08:45:15;;;;;;;13.02;11.40;;;;;;;;;;4992873;28;20521;-68
2021/06/28 08:47:41;;;;;;;12.25;11.05;;;;;;;;;;5005272;28;20191;-68
2021/06/28 08:50:10;;;;;;;11.98;10.77;;;;;;;;;;4993371;28;20325;-69
2021/06/28 08:52:38;;;;;;;13.02;11.40;;;;;;;;;;5000990;28;20497;-68
2021/06/28 08:55:06;;;;;;;9.95;8.95;;;;;;;;;;4999069;28;20195;-66
2021/06/28 08:57:32;;;;;;;10.07;9.02;;;;;;;;;;5000307;28;20195;-68
2021/06/28 08:59:58;;;;;;;11.77;9.77;;;;;;;;;;5017837;28;20203;-67
2021/06/28 09:02:23;;;;;;;10.90;9.73;;;;;;;;;;4994503;28;20281;-67
2021/06/28 09:05:00;;;;;;;11.20;10.20;;;;;;;;;;5005729;28;20191;-67
2021/06/28 09:07:26;;;;;;;10.07;9.10;;;;;;;;;;4992512;28;20699;-68
2021/06/28 09:09:52;;;;;;;13.07;10.60;;;;;;;;;;5003402;28;20234;-68
2021/06/28 09:12:18;;;;;;;11.00;9.98;;;;;;;;;;4997041;28;20210;-68
2021/06/28 09:14:49;;;;;;;10.68;9.68;;;;;;;;;;5002446;28;20556;-67
2021/06/28 09:17:38;;;;;;;10.38;8.55;;;;;;;;;;4999401;28;20195;-68
2021/06/28 09:20:18;;;;;;;11.10;10.00;;;;;;;;;;5006997;28;20574;-67
2021/06/28 09:22:45;;;;;;;10.95;9.85;;;;;;;;;;4992100;28;20613;-68
2021/06/28 09:25:34;;;;;;;11.32;9.40;;;;;;;;;;5000790;28;20519;-66
2021/06/28 09:28:00;;;;;;;13.77;10.02;;;;;;;;;;4996951;28;20191;-68
2021/06/28 09:30:25;;;;;;;10.85;8.38;;;;;;;;;;5003950;28;20248;-67
2021/06/28 09:32:56;;;;;;;11.13;9.13;;;;;;;;;;4996888;28;20301;-68
2021/06/28 09:35:38;;;;;;;9.65;8.73;;;;;;;;;;5003583;28;20194;-67
2021/06/28 09:38:09;;;;;;;9.25;8.40;;;;;;;;;;4998019;28;20194;-67
2021/06/28 09:40:36;;;;;;;10.48;8.50;;;;;;;;;;5005461;28;20194;-66
2021/06/28 09:43:25;;;;;;;11.23;10.13;;;;;;;;;;4993197;28;20678;-66
2021/06/28 09:45:55;;;;;;;11.18;9.88;;;;;;;;;;5009013;28;20585;-68
2021/06/28 09:48:25;;;;;;;10.45;9.45;;;;;;;;;;5003548;28;20194;-67
2021/06/28 09:51:17;;;;;;;10.95;9.65;;;;;;;;;;5005189;28;20226;-68
2021/06/28 09:53:43;;;;;;;12.40;10.43;;;;;;;;;;5002529;28;20201;-67
2021/06/28 09:56:28;;;;;;;10.32;9.25;;;;;;;;;;5004614;28;20202;-67
2021/06/28 09:58:54;;;;;;;10.55;9.55;;;;;;;;;;5003226;28;20250;-66
2021/06/28 10:01:24;;;;;;;10.50;9.50;;;;;;;;;;5009125;28;20211;-67
2021/06/28 10:03:52;;;;;;;11.00;9.93;;;;;;;;;;5004573;28;20259;-69
2021/06/28 10:08:50;;;;;;;10.02;9.10;;;;;;;;;;5011301;28;20271;-67
2021/06/28 10:11:19;;;;;;;9.85;8.95;;;;;;;;;;5001858;28;20339;-67
2021/06/28 10:13:55;;;;;;;9.93;9.00;;;;;;;;;;5008381;28;20565;-65
2021/06/28 10:16:24;;;;;;;9.18;7.88;;;;;;;;;;4993033;28;20183;-67
2021/06/28 10:18:51;;;;;;;11.40;10.40;;;;;;;;;;5000020;28;20216;-66
2021/06/28 10:21:16;;;;;;;10.23;9.23;;;;;;;;;;4995023;28;20240;-66
2021/06/28 10:23:42;;;;;;;9.40;8.50;;;;;;;;;;5001659;28;20281;-66
2021/06/28 10:26:07;;;;;;;10.73;9.65;;;;;;;;;;4997446;28;20623;-66
2021/06/28 10:28:35;;;;;;;10.35;8.77;;;;;;;;;;5000133;28;20218;-67
2021/06/28 10:31:02;;;;;;;8.73;7.90;;;;;;;;;;4994214;28;20279;-66
2021/06/28 10:33:28;;;;;;;8.50;7.80;;;;;;;;;;5016716;28;20197;-66
2021/06/28 10:36:00;;;;;;;8.98;7.93;;;;;;;;;;4996342;28;20551;-66
2021/06/28 10:38:42;;;;;;;7.60;6.90;;;;;;;;;;5001660;28;20194;-66
2021/06/28 10:41:07;;;;;;;8.73;7.90;;;;;;;;;;4995783;28;20214;-66
2021/06/28 10:43:35;;;;;;;8.73;7.97;;;;;;;;;;4998328;28;20186;-66
2021/06/28 10:46:03;;;;;;;11.10;8.82;;;;;;;;;;4995633;28;20333;-66
2021/06/28 10:48:30;;;;;;;9.68;8.77;;;;;;;;;;4996668;28;20252;-65
2021/06/28 10:50:59;;;;;;;10.00;9.00;;;;;;;;;;4996111;28;20778;-66
2021/06/28 10:53:34;;;;;;;10.27;8.65;;;;;;;;;;5000245;28;20651;-66
2021/06/28 10:56:25;;;;;;;10.30;9.05;;;;;;;;;;5001835;28;20194;-66
2021/06/28 10:59:06;;;;;;;9.85;8.60;;;;;;;;;;5004073;28;20202;-66
2021/06/28 11:01:40;;;;;;;9.27;8.38;;;;;;;;;;4996307;28;20238;-66
2021/06/28 11:04:29;;;;;;;9.73;8.73;;;;;;;;;;4999406;28;20206;-66
2021/06/28 11:07:00;;;;;;;9.45;8.55;;;;;;;;;;5000002;28;20218;-66
2021/06/28 11:09:33;;;;;;;9.35;8.55;;;;;;;;;;5005633;28;20302;-66
2021/06/28 11:11:59;;;;;;;9.27;8.38;;;;;;;;;;5005374;28;20183;-66
2021/06/28 11:14:25;;;;;;;10.30;9.30;;;;;;;;;;4992882;28;20196;-66
2021/06/28 11:17:09;;;;;;;9.65;8.70;;;;;;;;;;5005433;28;20656;-66
2021/06/28 11:19:53;;;;;;;10.77;8.95;;;;;;;;;;4996883;28;20187;-66
2021/06/28 11:22:30;;;;;;;9.75;8.95;;;;;;;;;;5004039;28;20639;-66
2021/06/28 11:25:13;;;;;;;9.38;8.48;;;;;;;;;;4994486;28;20207;-66
2021/06/28 11:27:56;;;;;;;10.10;9.02;;;;;;;;;;5005783;28;20261;-66
2021/06/28 11:30:27;;;;;;;9.00;8.10;;;;;;;;;;4998105;28;20686;-66
2021/06/28 11:33:04;;;;;;;9.80;8.82;;;;;;;;;;5012156;28;20206;-66
2021/06/28 11:35:40;;;;;;;9.90;9.00;;;;;;;;;;4997548;28;20293;-66
2021/06/28 11:38:12;;;;;;;9.27;8.32;;;;;;;;;;4997489;28;20281;-66
2021/06/28 11:40:42;;;;;;;9.30;8.50;;;;;;;;;;4996253;28;20241;-65
2021/06/28 11:43:08;;;;;;;10.32;9.00;;;;;;;;;;4996632;28;20699;-65
2021/06/28 11:45:51;;;;;;;12.02;8.88;;;;;;;;;;5007560;28;20297;-66
2021/06/28 11:48:37;;;;;;;9.90;8.90;;;;;;;;;;5002995;28;20544;-66
2021/06/28 11:51:21;;;;;;;8.75;7.95;;;;;;;;;;4998072;28;20231;-67
2021/06/28 11:54:03;;;;;;;12.70;11.38;;;;;;;;;;5007128;28;20256;-68
2021/06/28 11:56:35;;;;;;;13.07;11.70;;;;;;;;;;4999919;28;20748;-68
2021/06/28 11:59:13;;;;;;;13.60;12.18;;;;;;;;;;5024144;28;20644;-68
2021/06/28 12:01:47;;;;;;;14.25;12.10;;;;;;;;;;4994297;28;20238;-68
2021/06/28 12:04:23;;;;;;;12.85;11.68;;;;;;;;;;4997725;28;20201;-68
2021/06/28 12:06:50;;;;;;;12.98;11.63;;;;;;;;;;4997095;28;20603;-68
2021/06/28 12:09:15;;;;;;;13.23;11.23;;;;;;;;;;5006440;28;20214;-68
2021/06/28 12:11:59;;;;;;;11.13;9.95;;;;;;;;;;5001042;28;20285;-68
2021/06/28 12:14:33;;;;;;;10.50;9.45;;;;;;;;;;5004410;28;20198;-68
2021/06/28 12:17:00;;;;;;;11.00;9.93;;;;;;;;;;4994181;28;20657;-68
2021/06/28 12:19:26;;;;;;;12.00;9.55;;;;;;;;;;5002517;28;20191;-68
2021/06/28 12:21:51;;;;;;;10.15;9.23;;;;;;;;;;4991790;28;20304;-68
2021/06/28 12:24:19;;;;;;;10.35;9.27;;;;;;;;;;5003131;28;20281;-67
2021/06/28 12:27:05;;;;;;;10.82;9.73;;;;;;;;;;4997524;28;20268;-68
2021/06/28 12:29:33;;;;;;;9.35;8.43;;;;;;;;;;4999309;28;20207;-67
2021/06/28 12:32:01;;;;;;;9.18;8.30;;;;;;;;;;4993844;28;20284;-68
2021/06/28 12:34:26;;;;;;;10.32;9.38;;;;;;;;;;4999516;28;20211;-68
2021/06/28 12:36:52;;;;;;;9.93;9.02;;;;;;;;;;4985273;28;20248;-68
2021/06/28 12:39:44;;;;;;;13.80;9.02;;;;;;;;;;4999079;28;20185;-67
2021/06/28 12:42:15;;;;;;;9.57;8.60;;;;;;;;;;4987385;28;20229;-68
2021/06/28 12:44:41;;;;;;;9.43;8.63;;;;;;;;;;4999024;28;20192;-68
2021/06/28 12:47:06;;;;;;;9.85;8.85;;;;;;;;;;4995207;28;20193;-68
2021/06/28 12:49:32;;;;;;;9.85;8.63;;;;;;;;;;5005651;28;20238;-67
2021/06/28 12:52:24;;;;;;;9.88;8.88;;;;;;;;;;5007945;28;20209;-68
2021/06/28 12:55:26;;;;;;;10.27;8.65;;;;;;;;;;5000274;28;20547;-68
2021/06/28 12:58:02;;;;;;;11.75;10.60;;;;;;;;;;4994525;28;20206;-67
2021/06/28 13:00:29;;;;;;;11.50;10.40;;;;;;;;;;5002874;28;20252;-68
2021/06/28 13:03:15;;;;;;;11.02;9.95;;;;;;;;;;5009984;28;20187;-68
2021/06/28 13:05:51;;;;;;;12.55;11.25;;;;;;;;;;5004249;28;20646;-67
2021/06/28 13:08:29;;;;;;;12.27;10.75;;;;;;;;;;4993911;28;24703;-68
2021/06/28 13:11:14;;;;;;;12.20;10.90;;;;;;;;;;5002173;28;20178;-68
2021/06/28 13:14:25;;;;;;;12.93;11.57;;;;;;;;;;4993423;28;20605;-68
2021/06/28 13:19:17;;;;;;;13.20;11.55;;;;;;;;;;4994260;28;20281;-67
2021/06/28 13:21:52;;;;;;;14.10;11.20;;;;;;;;;;4997903;28;20190;-67
2021/06/28 13:24:23;;;;;;;11.95;10.80;;;;;;;;;;4994464;28;20207;-67
2021/06/28 13:26:57;;;;;;;11.75;10.27;;;;;;;;;;4305816;28;10000724;-68
2021/06/28 13:29:45;;;;;;;12.88;11.57;;;;;;;;;;4987013;28;20619;-68
2021/06/28 13:32:30;;;;;;;15.77;11.70;;;;;;;;;;4996645;28;20183;-68
2021/06/28 13:34:58;;;;;;;12.93;11.63;;;;;;;;;;4991770;28;20207;-67
2021/06/28 13:37:32;;;;;;;13.98;12.38;;;;;;;;;;5002990;28;20199;-66
2021/06/28 13:40:03;;;;;;;12.48;11.18;;;;;;;;;;4991380;28;20635;-67
2021/06/28 13:42:40;;;;;;;13.60;12.20;;;;;;;;;;4995777;28;20651;-68
2021/06/28 13:45:10;;;;;;;13.77;11.60;;;;;;;;;;4989941;28;20260;-68
2021/06/28 13:47:58;;;;;;;12.18;10.98;;;;;;;;;;4997963;28;20264;-67
2021/06/28 13:50:28;;;;;;;13.85;12.40;;;;;;;;;;4990642;28;20644;-67
2021/06/28 13:52:54;;;;;;;13.07;11.32;;;;;;;;;;4996278;28;21319;-66
2021/06/28 13:55:20;;;;;;;13.75;11.70;;;;;;;;;;4993974;28;20175;-67
2021/06/28 13:57:45;;;;;;;16.63;11.35;;;;;;;;;;4997013;28;20196;-67
2021/06/28 14:00:15;;;;;;;12.13;10.93;;;;;;;;;;4996972;28;20209;-66
2021/06/28 14:02:40;;;;;;;14.00;12.10;;;;;;;;;;4992948;28;20195;-66
2021/06/28 14:05:07;;;;;;;15.40;12.75;;;;;;;;;;4999382;28;20213;-66
2021/06/28 14:07:32;;;;;;;14.57;11.95;;;;;;;;;;4985460;28;20207;-70
2021/06/28 14:09:58;;;;;;;13.90;12.55;;;;;;;;;;5001242;28;20271;-66
2021/06/28 14:12:23;;;;;;;14.73;13.23;;;;;;;;;;4992479;28;20600;-66
2021/06/28 14:14:48;;;;;;;16.83;14.85;;;;;;;;;;4999630;28;20648;-66
2021/06/28 14:17:14;;;;;;;14.40;13.02;;;;;;;;;;4989280;28;20650;-66
2021/06/28 14:19:39;;;;;;;14.32;12.88;;;;;;;;;;4996383;28;20562;-67
2021/06/28 14:22:04;;;;;;;15.27;13.32;;;;;;;;;;4986846;28;21480;-67
2021/06/28 14:24:30;;;;;;;14.40;13.00;;;;;;;;;;4995543;28;20183;-66
2021/06/28 14:26:55;;;;;;;16.40;14.13;;;;;;;;;;4992139;28;20249;-65
2021/06/28 14:29:20;;;;;;;14.25;12.85;;;;;;;;;;4989602;28;20230;-67
2021/06/28 14:31:46;;;;;;;13.82;12.23;;;;;;;;;;5005580;28;20620;-66
2021/06/28 14:34:11;;;;;;;13.73;11.77;;;;;;;;;;4988345;28;20187;-66